Time;durP1;ratioP1;P1;durP2;ratioP2;P2;SDS_P1;SDS_P2;PMS_P1;PMS_P2;Temp;Humidity;BMP_temperature;BMP_pressure;BME280_temperature;BME280_humidity;BME280_pressure;Samples;Min_cycle;Max_cycle;Signal;HPM_P1;HPM_P2
2023/04/17 00:01:13;;;;;;;7.82;5.97;;;;;;;19.01;44.71;102493.00;5007689;28;21043;-69
2023/04/17 00:03:39;;;;;;;8.80;6.07;;;;;;;18.99;44.37;102492.25;5001595;28;20034;-69
2023/04/17 00:06:05;;;;;;;9.75;6.28;;;;;;;19.01;44.65;102500.94;4988205;28;20273;-69
2023/04/17 00:08:31;;;;;;;8.38;6.10;;;;;;;19.01;44.71;102494.81;4987852;28;20125;-69
2023/04/17 00:10:57;;;;;;;8.60;5.68;;;;;;;18.99;44.50;102491.38;4988660;28;20030;-69
2023/04/17 00:13:22;;;;;;;8.13;6.13;;;;;;;18.97;44.41;102491.47;4996492;28;20038;-69
2023/04/17 00:15:47;;;;;;;8.40;5.78;;;;;;;18.98;44.63;102489.69;4992759;28;20049;-68
2023/04/17 00:18:12;;;;;;;8.98;6.50;;;;;;;18.98;44.49;102487.06;5007059;28;20053;-68
2023/04/17 00:20:38;;;;;;;9.83;6.57;;;;;;;18.94;44.43;102488.16;5002906;28;20076;-68
2023/04/17 00:23:03;;;;;;;8.93;6.23;;;;;;;18.95;44.41;102488.06;4989517;28;20627;-69
2023/04/17 00:25:28;;;;;;;9.48;6.60;;;;;;;18.96;44.43;102492.44;5004380;28;20271;-69
2023/04/17 00:27:54;;;;;;;8.60;6.45;;;;;;;18.96;44.60;102487.16;4993945;28;20511;-69
2023/04/17 00:30:19;;;;;;;8.47;5.87;;;;;;;18.94;44.40;102489.00;4987536;28;20471;-68
2023/04/17 00:32:44;;;;;;;10.00;6.33;;;;;;;18.95;44.48;102488.06;4987604;28;20275;-68
2023/04/17 00:35:10;;;;;;;9.70;6.55;;;;;;;18.94;44.22;102482.88;4988025;28;20288;-68
2023/04/17 00:37:35;;;;;;;9.63;6.70;;;;;;;18.95;44.20;102480.16;4988007;28;20026;-68
2023/04/17 00:40:01;;;;;;;9.43;6.63;;;;;;;18.93;44.06;102471.47;4997208;28;20033;-69
2023/04/17 00:42:27;;;;;;;9.60;6.70;;;;;;;18.93;44.22;102467.97;5007486;28;20271;-68
2023/04/17 00:44:52;;;;;;;10.65;6.75;;;;;;;18.93;44.23;102473.25;5003962;28;20536;-68
2023/04/17 00:47:17;;;;;;;9.85;6.82;;;;;;;18.92;44.16;102464.47;4994280;28;20084;-69
2023/04/17 00:49:43;;;;;;;9.38;7.05;;;;;;;18.92;43.94;102466.28;4998082;28;20041;-68
2023/04/17 00:52:09;;;;;;;8.32;6.00;;;;;;;18.89;44.20;102462.00;5000443;28;20092;-70
2023/04/17 00:54:34;;;;;;;9.48;7.55;;;;;;;18.89;44.25;102469.09;4987522;28;20383;-68
2023/04/17 00:57:01;;;;;;;8.60;6.03;;;;;;;18.89;44.17;102463.81;5003232;28;20594;-68
2023/04/17 00:59:27;;;;;;;10.18;6.68;;;;;;;18.88;44.04;102465.59;5002099;28;20034;-69
2023/04/17 01:01:52;;;;;;;9.10;6.60;;;;;;;18.85;44.12;102469.28;5003519;28;20587;-67
2023/04/17 01:04:18;;;;;;;9.75;6.93;;;;;;;18.83;44.15;102460.56;4999172;28;20030;-68
2023/04/17 01:06:43;;;;;;;9.55;7.05;;;;;;;18.83;44.21;102463.22;4993444;28;20099;-69
2023/04/17 01:09:09;;;;;;;10.05;6.63;;;;;;;18.85;44.19;102463.16;4989567;28;20034;-69
2023/04/17 01:11:35;;;;;;;8.20;6.28;;;;;;;18.81;43.94;102454.50;4984179;28;20026;-69
2023/04/17 01:14:00;;;;;;;9.30;6.45;;;;;;;18.84;44.09;102466.72;4976493;28;20034;-69
2023/04/17 01:16:29;;;;;;;8.73;6.63;;;;;;;18.80;44.20;102473.94;5000423;28;20364;-69
2023/04/17 01:18:54;;;;;;;8.75;6.47;;;;;;;18.80;44.07;102465.16;4995595;28;20038;-69
2023/04/17 01:21:19;;;;;;;9.90;6.60;;;;;;;18.78;43.90;102465.25;4992491;28;20040;-68
2023/04/17 01:23:50;;;;;;;9.85;6.82;;;;;;;18.80;43.96;102465.16;4983741;28;20054;-68
2023/04/17 01:26:21;;;;;;;8.38;6.43;;;;;;;18.81;44.01;102466.88;5002740;28;20041;-68
2023/04/17 01:28:53;;;;;;;8.88;6.28;;;;;;;18.81;43.95;102473.00;4985658;28;20121;-68
2023/04/17 01:31:19;;;;;;;8.60;6.18;;;;;;;18.79;44.03;102464.31;4991179;28;20458;-68
2023/04/17 01:33:45;;;;;;;8.55;6.82;;;;;;;18.78;43.94;102469.69;4982767;28;20372;-68
2023/04/17 01:36:10;;;;;;;8.98;6.40;;;;;;;18.79;43.81;102477.53;4983981;28;20077;-69
2023/04/17 01:38:36;;;;;;;10.57;7.03;;;;;;;18.73;43.98;102467.31;4983454;28;20460;-68
2023/04/17 01:41:08;;;;;;;8.13;6.20;;;;;;;18.76;43.73;102468.94;4992601;28;20033;-69
2023/04/17 01:43:35;;;;;;;9.45;7.03;;;;;;;18.75;43.96;102467.22;4990576;28;20490;-68
2023/04/17 01:46:00;;;;;;;8.98;6.18;;;;;;;18.76;44.06;102474.22;5002947;28;20026;-68
2023/04/17 01:48:26;;;;;;;9.55;8.23;;;;;;;18.76;43.77;102474.22;5001776;28;20060;-68
2023/04/17 01:50:51;;;;;;;9.18;6.60;;;;;;;18.75;43.87;102469.88;4983725;28;20089;-68
2023/04/17 01:53:16;;;;;;;7.97;6.30;;;;;;;18.73;44.07;102466.47;4998207;28;20038;-67
2023/04/17 01:55:42;;;;;;;10.05;6.50;;;;;;;18.74;43.83;102466.38;4986359;28;20121;-68
2023/04/17 01:58:07;;;;;;;8.13;6.13;;;;;;;18.73;43.77;102469.94;4984931;28;20037;-68
2023/04/17 02:00:33;;;;;;;10.90;6.73;;;;;;;18.72;43.65;102470.88;4990430;28;20038;-69
2023/04/17 02:02:58;;;;;;;8.82;6.60;;;;;;;18.73;44.02;102475.22;4986908;28;20277;-68
2023/04/17 02:05:23;;;;;;;9.02;6.45;;;;;;;18.72;43.72;102477.97;4976252;28;20065;-68
2023/04/17 02:07:50;;;;;;;8.95;6.25;;;;;;;18.70;43.74;102472.78;4983118;28;20030;-68
2023/04/17 02:10:15;;;;;;;9.93;6.95;;;;;;;18.72;43.63;102478.81;4983305;28;20038;-68
2023/04/17 02:12:40;;;;;;;10.02;6.88;;;;;;;18.69;43.72;102468.41;4983153;28;20060;-68
2023/04/17 02:15:06;;;;;;;8.18;6.53;;;;;;;18.70;43.72;102474.56;4986894;28;20026;-68
2023/04/17 02:17:31;;;;;;;9.27;6.45;;;;;;;18.66;43.88;102469.47;4994597;28;20054;-68
2023/04/17 02:19:57;;;;;;;9.23;7.07;;;;;;;18.68;43.62;102469.38;4982822;28;20037;-69
2023/04/17 02:22:22;;;;;;;9.00;6.88;;;;;;;18.70;43.61;102469.28;4986211;28;20046;-68
2023/04/17 02:24:47;;;;;;;9.27;6.38;;;;;;;18.69;43.55;102476.34;4982845;28;20503;-68
2023/04/17 02:27:13;;;;;;;8.30;6.65;;;;;;;18.64;43.44;102459.91;4989392;28;20044;-68
2023/04/17 02:29:38;;;;;;;10.10;6.65;;;;;;;18.68;43.36;102469.38;5002292;28;20459;-68
2023/04/17 02:32:03;;;;;;;7.70;6.23;;;;;;;18.65;43.38;102473.03;4992600;28;20034;-68
2023/04/17 02:34:28;;;;;;;9.65;6.80;;;;;;;18.66;43.46;102474.75;5001953;28;20342;-68
2023/04/17 02:36:54;;;;;;;8.48;6.47;;;;;;;18.67;43.49;102471.19;4991666;28;20060;-69
2023/04/17 02:39:19;;;;;;;10.65;7.03;;;;;;;18.64;43.19;102468.72;4999727;28;20366;-68
2023/04/17 02:41:45;;;;;;;8.57;6.30;;;;;;;18.62;43.65;102467.09;5000852;28;20060;-67
2023/04/17 02:44:10;;;;;;;8.50;6.35;;;;;;;18.63;43.49;102468.81;5001428;28;20422;-68
2023/04/17 02:46:35;;;;;;;8.13;6.10;;;;;;;18.63;43.70;102479.38;5002054;28;20030;-69
2023/04/17 02:49:00;;;;;;;10.53;6.07;;;;;;;18.63;43.50;102474.94;4981236;28;20502;-69
2023/04/17 02:51:26;;;;;;;9.23;6.10;;;;;;;18.61;43.63;102474.16;4989539;28;20286;-68
2023/04/17 02:53:51;;;;;;;8.25;6.22;;;;;;;18.63;43.42;102468.81;5001890;28;20037;-69
2023/04/17 02:56:16;;;;;;;8.05;5.88;;;;;;;18.63;43.54;102485.50;4994530;28;20755;-69
2023/04/17 02:58:43;;;;;;;8.60;6.00;;;;;;;18.62;43.43;102475.84;4999162;28;20133;-69
2023/04/17 03:01:09;;;;;;;7.85;6.05;;;;;;;18.61;43.50;102475.94;4986660;28;20275;-69
2023/04/17 03:03:37;;;;;;;8.07;5.90;;;;;;;18.64;43.59;102476.63;5001600;28;20030;-68
2023/04/17 03:06:02;;;;;;;8.23;5.95;;;;;;;18.63;43.48;102474.94;5001418;28;20111;-68
2023/04/17 03:08:28;;;;;;;8.40;6.70;;;;;;;18.62;43.54;102480.28;4996469;28;20034;-68
2023/04/17 03:10:54;;;;;;;10.32;6.90;;;;;;;18.60;43.46;102474.25;4992428;28;20034;-69
2023/04/17 03:13:20;;;;;;;8.88;6.85;;;;;;;18.57;43.52;102477.06;4986770;28;20034;-69
2023/04/17 03:15:45;;;;;;;8.82;6.53;;;;;;;18.60;43.52;102474.25;5001454;28;20030;-68
2023/04/17 03:18:11;;;;;;;8.35;6.30;;;;;;;18.61;43.51;102479.44;4988364;28;20047;-67
2023/04/17 03:20:36;;;;;;;9.45;7.00;;;;;;;18.59;43.45;102475.19;4985368;28;20482;-68
2023/04/17 03:23:01;;;;;;;8.53;6.73;;;;;;;18.61;43.54;102487.38;4986413;28;20095;-68
2023/04/17 03:25:26;;;;;;;8.65;6.70;;;;;;;18.60;43.57;102484.81;5001490;28;20354;-69
2023/04/17 03:27:52;;;;;;;9.18;6.53;;;;;;;18.58;43.41;102479.63;4998955;28;20029;-68
2023/04/17 03:30:17;;;;;;;10.30;6.80;;;;;;;18.57;43.34;102482.34;4997177;28;20042;-68
2023/04/17 03:32:42;;;;;;;9.50;6.97;;;;;;;18.59;43.34;102481.31;5001306;28;20264;-68
2023/04/17 03:35:08;;;;;;;8.93;6.50;;;;;;;18.59;43.26;102485.75;4964801;28;20264;-67
2023/04/17 03:37:33;;;;;;;9.80;6.72;;;;;;;18.57;43.34;102479.72;4984849;28;20647;-68
2023/04/17 03:39:58;;;;;;;9.93;7.07;;;;;;;18.56;43.31;102468.28;4983491;28;20065;-68
2023/04/17 03:42:25;;;;;;;11.35;7.03;;;;;;;18.57;43.36;102477.06;4993665;28;20030;-68
2023/04/17 03:44:50;;;;;;;9.40;7.25;;;;;;;18.54;43.56;102477.25;4987695;28;20026;-68
2023/04/17 03:47:16;;;;;;;11.50;7.22;;;;;;;18.56;43.41;102475.34;4993915;28;20042;-68
2023/04/17 03:49:41;;;;;;;10.02;7.30;;;;;;;18.54;43.33;102478.09;4991092;28;20041;-67
2023/04/17 03:52:06;;;;;;;8.60;6.63;;;;;;;18.56;43.38;102478.00;4996926;28;20083;-68
2023/04/17 03:54:34;;;;;;;10.32;7.65;;;;;;;18.56;43.26;102473.56;5001229;28;20037;-69
2023/04/17 03:57:00;;;;;;;10.80;7.35;;;;;;;18.55;43.34;102474.53;4989788;28;20034;-68
2023/04/17 03:59:26;;;;;;;9.48;7.25;;;;;;;18.54;43.26;102474.59;5001000;28;20516;-68
2023/04/17 04:01:52;;;;;;;9.55;6.93;;;;;;;18.54;43.26;102477.25;4989614;28;20034;-69
2023/04/17 04:04:18;;;;;;;9.18;6.85;;;;;;;18.53;43.28;102475.53;4991312;28;20406;-70
2023/04/17 04:06:46;;;;;;;8.18;6.53;;;;;;;18.45;43.33;102471.56;4993738;28;20039;-68
2023/04/17 04:09:11;;;;;;;10.90;7.10;;;;;;;18.52;43.27;102476.47;4984397;28;20476;-68
2023/04/17 04:11:36;;;;;;;10.18;7.28;;;;;;;18.49;43.40;102477.50;4989298;28;20140;-67
2023/04/17 04:14:01;;;;;;;11.07;7.10;;;;;;;18.51;43.51;102478.25;4988917;28;20037;-67
2023/04/17 04:16:27;;;;;;;8.90;6.50;;;;;;;18.48;43.40;102474.03;5000795;28;20034;-69
2023/04/17 04:18:52;;;;;;;9.03;6.97;;;;;;;18.49;43.29;102477.50;4996129;28;20113;-69
2023/04/17 04:21:17;;;;;;;10.43;7.40;;;;;;;18.50;43.22;102479.22;4996826;28;20635;-68
2023/04/17 04:23:44;;;;;;;9.13;6.68;;;;;;;18.49;43.31;102486.25;4994694;28;20061;-69
2023/04/17 04:26:10;;;;;;;9.27;7.05;;;;;;;18.47;43.39;102476.75;4989119;28;21031;-69
2023/04/17 04:28:36;;;;;;;9.07;6.63;;;;;;;18.47;43.51;102482.88;4992065;28;20033;-69
2023/04/17 04:31:02;;;;;;;8.48;6.50;;;;;;;18.48;43.45;102481.94;4995489;28;20034;-68
2023/04/17 04:33:28;;;;;;;9.57;7.28;;;;;;;18.50;43.23;102489.78;4989189;28;20379;-67
2023/04/17 04:35:54;;;;;;;7.53;6.40;;;;;;;18.48;43.24;102489.00;4985223;28;20943;-68
2023/04/17 04:38:20;;;;;;;9.60;6.90;;;;;;;18.49;43.39;102496.81;4995940;28;20113;-69
2023/04/17 04:40:51;;;;;;;9.20;6.85;;;;;;;18.49;43.34;102495.97;5001635;28;20125;-69
2023/04/17 04:43:16;;;;;;;8.63;6.32;;;;;;;18.49;43.21;102490.72;4979378;28;20434;-69
2023/04/17 04:45:42;;;;;;;10.07;7.20;;;;;;;18.47;43.20;102500.50;4999267;28;20072;-68
2023/04/17 04:48:07;;;;;;;9.95;7.07;;;;;;;18.47;43.48;102506.63;4985073;28;20114;-69
2023/04/17 04:50:32;;;;;;;9.52;7.07;;;;;;;18.44;43.35;102496.25;4994817;28;20096;-68
2023/04/17 04:52:57;;;;;;;8.35;6.90;;;;;;;18.47;43.50;102504.00;4982899;28;20065;-69
2023/04/17 04:55:23;;;;;;;10.07;6.93;;;;;;;18.45;43.25;102495.31;4996300;28;20042;-69
2023/04/17 04:57:48;;;;;;;9.10;6.43;;;;;;;18.45;43.11;102497.09;4999546;28;20029;-69
2023/04/17 05:00:14;;;;;;;10.18;7.38;;;;;;;18.47;43.24;102503.16;4994477;28;20042;-69
2023/04/17 05:02:39;;;;;;;9.45;6.97;;;;;;;18.43;43.39;102494.53;5000760;28;20027;-69
2023/04/17 05:05:08;;;;;;;8.63;7.10;;;;;;;18.45;43.35;102500.59;4983065;28;20069;-68
2023/04/17 05:07:33;;;;;;;10.23;7.20;;;;;;;18.42;43.39;102503.41;4998823;28;20065;-69
2023/04/17 05:09:58;;;;;;;8.35;6.85;;;;;;;18.40;43.45;102505.25;4983037;28;20065;-68
2023/04/17 05:12:23;;;;;;;8.63;6.57;;;;;;;18.38;43.44;102509.78;4986653;28;20977;-67
2023/04/17 05:14:49;;;;;;;7.72;6.20;;;;;;;18.38;43.51;102514.22;4999609;28;20279;-68
2023/04/17 05:17:14;;;;;;;8.75;6.32;;;;;;;18.39;43.52;102505.34;4993800;28;20037;-69
2023/04/17 05:19:39;;;;;;;8.30;6.25;;;;;;;18.41;43.67;102512.25;4994134;28;20041;-68
2023/04/17 05:22:05;;;;;;;7.57;5.82;;;;;;;18.44;43.84;102519.16;4994238;28;20030;-69
2023/04/17 05:24:30;;;;;;;8.15;5.70;;;;;;;18.44;43.93;102520.00;4977619;28;20136;-67
2023/04/17 05:26:55;;;;;;;7.30;5.30;;;;;;;18.49;43.93;102520.59;5003218;28;20034;-68
2023/04/17 05:29:23;;;;;;;7.85;5.30;;;;;;;18.53;43.67;102526.53;4999350;28;20040;-68
2023/04/17 05:31:49;;;;;;;7.95;5.38;;;;;;;18.57;43.88;102522.81;4991727;28;20134;-68
2023/04/17 05:34:14;;;;;;;7.85;5.00;;;;;;;18.59;43.83;102522.72;4992127;28;20109;-69
2023/04/17 05:36:39;;;;;;;7.15;5.63;;;;;;;18.64;43.83;102525.94;4988443;28;20086;-69
2023/04/17 05:39:05;;;;;;;8.35;5.07;;;;;;;18.64;43.88;102524.16;4994572;28;20037;-68
2023/04/17 05:41:30;;;;;;;7.07;4.88;;;;;;;18.69;43.60;102518.59;4983244;28;20407;-69
2023/04/17 05:43:55;;;;;;;7.20;5.20;;;;;;;18.70;43.69;102527.38;4964528;28;20079;-67
2023/04/17 05:46:20;;;;;;;7.13;5.07;;;;;;;18.74;43.63;102528.91;5001944;28;20259;-68
2023/04/17 05:48:46;;;;;;;7.35;4.90;;;;;;;18.74;43.71;102529.78;4990626;28;20459;-69
2023/04/17 05:51:11;;;;;;;7.25;5.22;;;;;;;18.79;43.46;102533.00;4996455;28;20081;-67
2023/04/17 05:53:37;;;;;;;8.13;6.10;;;;;;;18.83;43.80;102531.00;4984351;28;20041;-68
2023/04/17 05:56:02;;;;;;;7.53;5.22;;;;;;;18.82;43.69;102538.09;4984251;28;20109;-68
2023/04/17 05:58:28;;;;;;;7.57;5.50;;;;;;;18.84;43.55;102532.75;4992590;28;20038;-68
2023/04/17 06:00:54;;;;;;;6.68;4.82;;;;;;;18.84;43.57;102530.97;4992472;28;20070;-69
2023/04/17 06:03:19;;;;;;;9.00;5.22;;;;;;;18.87;43.70;102537.00;4974412;28;20036;-69
2023/04/17 06:05:45;;;;;;;7.60;5.25;;;;;;;18.89;43.77;102549.19;4985279;28;20038;-68
2023/04/17 06:08:11;;;;;;;7.22;4.78;;;;;;;18.88;43.82;102530.78;4997347;28;20116;-67
2023/04/17 06:10:36;;;;;;;8.88;5.65;;;;;;;18.90;43.76;102545.63;4990625;28;20042;-67
2023/04/17 06:13:02;;;;;;;7.85;5.45;;;;;;;18.90;44.05;102539.47;4982759;28;20486;-69
2023/04/17 06:15:27;;;;;;;8.25;5.28;;;;;;;18.95;43.89;102543.56;4994371;28;20034;-69
2023/04/17 06:17:52;;;;;;;7.72;4.72;;;;;;;18.95;44.16;102543.56;5002055;28;20040;-69
2023/04/17 06:20:18;;;;;;;11.57;5.30;;;;;;;18.95;44.54;102548.84;4988437;28;20034;-70
2023/04/17 06:22:45;;;;;;;7.22;4.78;;;;;;;18.97;44.39;102554.88;4992389;28;20473;-68
2023/04/17 06:25:11;;;;;;;8.65;5.43;;;;;;;18.97;44.34;102554.88;5001929;28;20509;-70
2023/04/17 06:27:36;;;;;;;8.35;5.15;;;;;;;18.98;44.35;102553.09;5002388;28;20069;-71
2023/04/17 06:30:02;;;;;;;8.40;5.22;;;;;;;18.97;44.88;102548.75;5001894;28;20034;-70
2023/04/17 06:32:27;;;;;;;11.60;5.80;;;;;;;18.99;44.75;102560.06;5001932;28;20093;-69
2023/04/17 06:34:52;;;;;;;8.63;6.13;;;;;;;19.00;44.90;102561.78;4992070;28;20144;-70
2023/04/17 06:37:18;;;;;;;9.73;5.10;;;;;;;18.99;44.87;102566.22;4983162;28;20259;-71
2023/04/17 06:39:43;;;;;;;7.13;4.75;;;;;;;19.02;44.79;102562.53;4992903;28;20653;-69
2023/04/17 06:42:08;;;;;;;7.47;5.50;;;;;;;18.93;44.84;102560.44;5002241;28;20398;-69
2023/04/17 06:44:33;;;;;;;8.00;5.45;;;;;;;18.97;44.71;102562.81;4994084;28;20271;-69
2023/04/17 06:47:02;;;;;;;7.00;5.20;;;;;;;18.98;45.18;102569.81;4983864;28;20178;-69
2023/04/17 06:49:30;;;;;;;8.05;5.70;;;;;;;18.98;44.66;102563.69;4988095;28;20072;-70
2023/04/17 06:51:56;;;;;;;8.82;5.70;;;;;;;18.98;45.14;102569.81;5001918;28;20037;-69
2023/04/17 06:54:21;;;;;;;8.23;5.63;;;;;;;19.00;44.72;102575.00;4986253;28;20059;-69
2023/04/17 06:56:46;;;;;;;8.68;5.68;;;;;;;19.01;44.75;102587.28;4991993;28;20069;-68
2023/04/17 06:59:12;;;;;;;8.57;5.85;;;;;;;19.02;44.80;102578.41;4998964;28;20030;-66
2023/04/17 07:01:39;;;;;;;9.55;6.38;;;;;;;18.99;44.59;102576.78;4994347;28;20661;-68
2023/04/17 07:04:04;;;;;;;8.38;5.85;;;;;;;18.99;44.57;102583.84;4994404;28;20041;-69
2023/04/17 07:06:32;;;;;;;7.65;5.90;;;;;;;19.01;44.54;102582.00;4989425;28;20042;-69
2023/04/17 07:08:58;;;;;;;9.82;5.85;;;;;;;19.02;44.57;102586.31;4993677;28;20034;-73
2023/04/17 07:11:23;;;;;;;8.88;5.68;;;;;;;18.98;44.80;102590.94;4988859;28;21328;-68
2023/04/17 07:13:48;;;;;;;8.67;5.97;;;;;;;18.99;44.82;102594.41;4982182;28;20467;-69
2023/04/17 07:16:15;;;;;;;11.02;6.15;;;;;;;19.01;44.71;102600.50;4989654;28;20636;-67
2023/04/17 07:18:40;;;;;;;9.13;6.22;;;;;;;18.99;44.48;102591.78;4982199;28;20030;-66
2023/04/17 07:21:05;;;;;;;10.02;6.10;;;;;;;18.99;44.35;102599.69;4981784;28;20413;-67
2023/04/17 07:23:31;;;;;;;8.07;5.67;;;;;;;19.00;44.28;102601.41;4988195;28;20053;-67
2023/04/17 07:25:56;;;;;;;8.75;5.93;;;;;;;18.98;44.32;102601.50;5001238;28;20255;-67
2023/04/17 07:28:22;;;;;;;9.68;6.38;;;;;;;18.92;44.37;102608.94;4983801;28;20076;-68
2023/04/17 07:30:47;;;;;;;9.07;5.93;;;;;;;18.95;44.35;102609.59;4991786;28;20084;-68
2023/04/17 07:33:12;;;;;;;9.35;5.75;;;;;;;18.96;44.21;102608.69;4991530;28;20029;-68
2023/04/17 07:35:37;;;;;;;9.35;6.35;;;;;;;18.96;44.30;102613.09;5001188;28;20498;-69
2023/04/17 07:38:03;;;;;;;11.57;7.07;;;;;;;18.93;43.92;102615.91;5001428;28;20037;-67
2023/04/17 07:40:29;;;;;;;8.70;6.07;;;;;;;18.93;44.30;102614.13;5000711;28;20033;-67
2023/04/17 07:42:55;;;;;;;9.13;6.57;;;;;;;18.94;44.15;102613.19;5001081;28;20120;-68
2023/04/17 07:45:21;;;;;;;9.02;7.00;;;;;;;18.93;44.20;102605.34;4993549;28;20466;-68
2023/04/17 07:47:46;;;;;;;8.32;6.10;;;;;;;18.93;44.06;102616.78;5001108;28;20080;-67
2023/04/17 07:50:12;;;;;;;8.57;5.82;;;;;;;18.93;44.44;102615.91;5000971;28;20037;-68
2023/04/17 07:52:37;;;;;;;9.60;6.38;;;;;;;18.93;44.30;102614.13;5000889;28;20624;-67
2023/04/17 07:55:03;;;;;;;10.35;6.07;;;;;;;18.92;44.09;102611.59;4988537;28;20394;-68
2023/04/17 07:57:28;;;;;;;9.38;5.97;;;;;;;18.93;43.96;102619.41;5001001;28;20037;-66
2023/04/17 07:59:54;;;;;;;12.50;6.80;;;;;;;18.90;44.06;102611.66;4996623;28;20075;-68
2023/04/17 08:02:20;;;;;;;10.80;6.82;;;;;;;18.93;44.06;102621.19;5001321;28;20981;-67
2023/04/17 08:04:45;;;;;;;7.45;5.60;;;;;;;18.91;43.73;102617.78;5002381;28;20065;-67
2023/04/17 08:07:11;;;;;;;9.90;6.90;;;;;;;18.90;43.95;102611.66;5005089;28;20038;-68
2023/04/17 08:09:37;;;;;;;8.95;6.38;;;;;;;18.93;44.11;102623.81;5002587;28;20116;-67
2023/04/17 08:12:03;;;;;;;9.00;6.03;;;;;;;18.88;44.12;102617.97;4976207;28;20030;-69
2023/04/17 08:14:28;;;;;;;8.52;5.90;;;;;;;18.92;44.26;102619.50;5002328;28;20088;-69
2023/04/17 08:16:54;;;;;;;9.48;6.70;;;;;;;18.92;44.25;102623.00;5004907;28;20042;-67
2023/04/17 08:19:19;;;;;;;7.97;5.88;;;;;;;18.94;44.30;102618.47;5000710;28;20030;-69
2023/04/17 08:21:49;;;;;;;9.90;6.53;;;;;;;18.93;44.31;102624.69;4986583;28;20034;-69
2023/04/17 08:24:15;;;;;;;8.55;6.43;;;;;;;18.94;44.27;102623.75;4985008;28;20137;-67
2023/04/17 08:26:40;;;;;;;9.93;5.93;;;;;;;18.95;44.46;102630.75;5002810;28;20059;-70
2023/04/17 08:29:07;;;;;;;10.20;5.97;;;;;;;18.96;44.23;102628.94;5004647;28;20581;-69
2023/04/17 08:31:35;;;;;;;12.23;6.70;;;;;;;19.03;44.41;102628.50;4993584;28;20030;-68
2023/04/17 08:34:01;;;;;;;9.30;6.20;;;;;;;19.11;44.20;102627.22;4986033;28;20038;-68
2023/04/17 08:36:27;;;;;;;10.23;6.88;;;;;;;19.13;44.23;102634.13;5000008;28;20056;-67
2023/04/17 08:38:52;;;;;;;9.40;6.50;;;;;;;19.08;44.16;102630.91;4966704;28;20100;-68
2023/04/17 08:41:21;;;;;;;9.30;6.80;;;;;;;19.05;44.62;102631.06;4985790;28;20104;-73
2023/04/17 08:43:50;;;;;;;9.48;6.30;;;;;;;19.12;44.24;102634.19;4989690;28;20292;-72
2023/04/17 08:46:17;;;;;;;10.48;6.68;;;;;;;19.16;43.95;102631.28;4992443;28;20076;-71
2023/04/17 08:48:43;;;;;;;10.57;6.75;;;;;;;19.12;44.26;102629.78;4995889;28;20125;-68
2023/04/17 08:51:09;;;;;;;9.90;6.68;;;;;;;19.10;44.27;102628.16;4995857;28;20042;-68
2023/04/17 08:53:34;;;;;;;10.10;6.25;;;;;;;19.09;44.53;102634.38;4986923;28;20038;-67
2023/04/17 08:56:04;;;;;;;11.15;7.03;;;;;;;19.08;44.20;102627.41;4984866;28;20475;-66
2023/04/17 08:58:34;;;;;;;9.60;6.70;;;;;;;19.07;44.51;102630.97;4986560;28;20039;-67
2023/04/17 09:01:15;;;;;;;9.52;6.43;;;;;;;19.02;44.49;102623.31;4988050;28;20084;-69
2023/04/17 09:03:43;;;;;;;9.25;6.68;;;;;;;19.06;44.24;102627.50;5002874;28;20044;-69
2023/04/17 09:06:10;;;;;;;10.88;6.68;;;;;;;19.06;44.30;102626.63;4972861;28;20125;-70
2023/04/17 09:08:36;;;;;;;9.27;6.85;;;;;;;19.10;44.01;102630.81;4990697;28;20045;-69
2023/04/17 09:11:01;;;;;;;7.88;5.97;;;;;;;19.10;44.13;102629.00;4991426;28;20065;-70
2023/04/17 09:13:29;;;;;;;9.32;6.80;;;;;;;19.05;44.29;102628.41;5003114;28;20057;-68
2023/04/17 09:16:14;;;;;;;9.88;6.72;;;;;;;19.01;44.43;102632.19;4988431;28;20039;-68
2023/04/17 09:18:41;;;;;;;9.90;6.78;;;;;;;19.05;44.45;102627.59;4998386;28;20034;-68
2023/04/17 09:21:08;;;;;;;9.85;6.78;;;;;;;19.04;44.58;102632.00;4992721;28;20091;-69
2023/04/17 09:23:54;;;;;;;8.85;6.68;;;;;;;19.03;44.62;102641.72;4991622;28;20054;-68
2023/04/17 09:26:24;;;;;;;12.65;7.55;;;;;;;19.06;44.22;102634.56;4996524;28;20517;-67
2023/04/17 09:29:02;;;;;;;9.60;7.07;;;;;;;19.06;44.42;102639.84;4995280;28;20414;-69
2023/04/17 09:31:33;;;;;;;9.55;6.97;;;;;;;19.03;44.42;102622.38;4992219;28;20041;-68
2023/04/17 09:33:59;;;;;;;9.70;7.40;;;;;;;19.09;44.67;102629.09;4991261;28;20057;-69
2023/04/17 09:36:26;;;;;;;10.70;7.65;;;;;;;19.12;44.36;102629.78;4989384;28;20568;-70
2023/04/17 09:38:52;;;;;;;10.73;7.50;;;;;;;19.15;44.25;102631.38;4993185;28;20041;-67
2023/04/17 09:41:47;;;;;;;12.85;6.50;;;;;;;19.15;44.33;102634.91;4992489;28;20269;-69
2023/04/17 09:44:24;;;;;;;10.25;7.00;;;;;;;19.14;44.53;102621.78;4981208;28;20479;-68
2023/04/17 09:46:51;;;;;;;10.73;6.75;;;;;;;19.18;44.74;102623.28;4983407;28;20056;-73
2023/04/17 09:49:29;;;;;;;9.05;6.43;;;;;;;19.23;44.55;102633.59;4974265;28;20402;-73
2023/04/17 09:51:56;;;;;;;10.55;6.82;;;;;;;19.25;44.44;102621.13;4980436;28;20040;-73
2023/04/17 09:54:23;;;;;;;10.85;6.47;;;;;;;19.24;44.23;102638.78;4992382;28;20136;-68
2023/04/17 09:56:51;;;;;;;12.20;6.95;;;;;;;19.19;44.55;102625.84;4993308;28;20068;-70
2023/04/17 09:59:17;;;;;;;10.70;6.53;;;;;;;19.24;44.46;102627.38;4992564;28;21236;-68
2023/04/17 10:01:42;;;;;;;9.63;6.72;;;;;;;19.23;44.72;102630.94;5000212;28;20916;-68
2023/04/17 10:04:08;;;;;;;8.18;6.22;;;;;;;19.21;44.65;102623.94;4990376;28;20475;-68
2023/04/17 10:06:34;;;;;;;9.55;6.70;;;;;;;19.20;44.56;102626.69;4998016;28;20038;-67
2023/04/17 10:09:01;;;;;;;9.65;6.78;;;;;;;19.17;44.69;102621.59;4965612;28;20030;-70
2023/04/17 10:11:30;;;;;;;9.10;6.53;;;;;;;19.23;44.76;102615.09;4997339;28;20087;-69
2023/04/17 10:14:09;;;;;;;10.13;6.65;;;;;;;19.26;44.56;102613.13;4995424;28;20398;-72
2023/04/17 10:16:38;;;;;;;14.45;6.35;;;;;;;19.26;44.62;102615.75;4991776;28;20038;-70
2023/04/17 10:19:26;;;;;;;12.30;7.03;;;;;;;19.24;44.60;102622.94;4974082;28;20132;-66
2023/04/17 10:22:19;;;;;;;8.80;6.20;;;;;;;19.23;44.73;102615.09;4982640;28;20042;-68
2023/04/17 10:24:52;;;;;;;9.65;5.93;;;;;;;19.20;44.82;102614.34;4998844;28;20058;-72
2023/04/17 10:27:26;;;;;;;9.55;6.50;;;;;;;19.20;45.07;102614.34;4993104;28;20037;-71
2023/04/17 10:29:58;;;;;;;;;;;;;;;19.42;44.35;102618.34;4991889;28;20117;-69
2023/04/17 10:32:26;;;;;;;10.05;6.32;;;;;;;19.49;44.15;102614.41;4998573;28;19917;-68
2023/04/17 10:34:53;;;;;;;9.00;6.25;;;;;;;19.50;43.89;102624.06;5002005;28;20077;-68
2023/04/17 10:37:21;;;;;;;9.55;6.18;;;;;;;19.52;43.81;102619.53;5002278;28;20053;-67
2023/04/17 10:39:58;;;;;;;8.05;6.00;;;;;;;19.48;44.02;102614.50;4994605;28;20037;-68
2023/04/17 10:42:24;;;;;;;7.72;6.32;;;;;;;19.51;43.85;102612.53;4995764;28;20034;-68
2023/04/17 10:44:54;;;;;;;8.70;6.30;;;;;;;19.51;43.61;102611.69;4992195;28;20034;-68
2023/04/17 10:47:20;;;;;;;9.70;6.10;;;;;;;19.50;43.83;102612.63;5002127;28;20601;-68
2023/04/17 10:49:57;;;;;;;8.82;5.82;;;;;;;19.40;44.01;102609.66;4985960;28;20057;-68
2023/04/17 10:52:32;;;;;;;8.50;5.97;;;;;;;19.37;44.01;102608.03;4999326;28;20036;-68
2023/04/17 10:55:19;;;;;;;10.20;6.70;;;;;;;19.33;43.92;102593.31;5002049;28;20038;-69
2023/04/17 10:58:04;;;;;;;9.00;5.65;;;;;;;19.34;44.01;102607.38;4995288;28;20074;-68
2023/04/17 11:00:31;;;;;;;;;;;;;;;19.37;44.08;102601.91;4996892;28;20049;-68
2023/04/17 11:02:57;;;;;;;7.97;5.60;;;;;;;19.34;43.93;102605.59;5001841;28;19940;-67
2023/04/17 11:05:23;;;;;;;9.45;5.50;;;;;;;19.34;44.06;102604.75;4996250;28;20837;-69
2023/04/17 11:07:49;;;;;;;8.55;5.75;;;;;;;19.28;44.00;102591.88;4982370;28;20037;-68
2023/04/17 11:10:17;;;;;;;8.75;6.13;;;;;;;19.31;44.07;102596.97;4981721;28;20439;-69
2023/04/17 11:12:52;;;;;;;9.32;6.15;;;;;;;19.28;44.18;102591.88;4998787;28;20467;-68
2023/04/17 11:15:27;;;;;;;11.70;6.35;;;;;;;19.29;44.12;102594.44;4995302;28;20445;-70
2023/04/17 11:17:54;;;;;;;11.38;5.40;;;;;;;19.25;44.31;102592.06;4973176;28;20033;-68
2023/04/17 11:20:20;;;;;;;8.32;5.90;;;;;;;19.25;44.33;102589.41;5001793;28;20029;-69
2023/04/17 11:22:46;;;;;;;8.98;6.30;;;;;;;19.24;44.20;102588.56;4986929;28;20026;-68